createdAt,value
2018-03-19T00:02:28.198Z,74.60
2018-03-19T00:04:55.683Z,74.10
2018-03-19T00:07:23.995Z,74.20
2018-03-19T00:09:51.476Z,74.20
2018-03-19T00:12:18.933Z,74.50
2018-03-19T00:14:46.446Z,75.10
2018-03-19T00:17:14.803Z,75.10
2018-03-19T00:19:42.541Z,75.00
2018-03-19T00:22:11.929Z,75.30
2018-03-19T00:24:44.263Z,75.00
2018-03-19T00:27:11.750Z,75.00
2018-03-19T00:29:40.546Z,74.60
2018-03-19T00:32:08.779Z,74.90
2018-03-19T00:34:37.022Z,75.80
2018-03-19T00:37:04.497Z,75.20
2018-03-19T00:39:31.976Z,75.50
2018-03-19T00:42:00.212Z,75.60
2018-03-19T00:44:27.716Z,75.60
2018-03-19T00:46:56.950Z,75.60
2018-03-19T00:49:25.029Z,75.30
2018-03-19T00:51:53.714Z,75.10
2018-03-19T00:54:21.781Z,74.80
2018-03-19T00:56:49.858Z,74.80
2018-03-19T00:59:17.336Z,74.50
2018-03-19T01:01:44.801Z,74.50
2018-03-19T01:04:12.258Z,73.80
2018-03-19T01:06:39.749Z,73.30
2018-03-19T01:09:07.222Z,73.30
2018-03-19T01:11:34.704Z,73.40
2018-03-19T01:14:02.174Z,73.10
2018-03-19T01:16:29.638Z,73.00
2018-03-19T01:18:59.684Z,73.40
2018-03-19T01:21:33.972Z,73.60
2018-03-19T01:24:01.695Z,73.70
2018-03-19T01:26:29.893Z,73.60
2018-03-19T01:28:59.199Z,73.30
2018-03-19T01:31:27.477Z,73.70
2018-03-19T01:33:55.549Z,73.60
2018-03-19T01:36:23.510Z,74.00
2018-03-19T01:38:51.485Z,74.10
2018-03-19T01:41:20.784Z,74.50
2018-03-19T01:43:48.256Z,74.20
2018-03-19T01:46:16.631Z,73.70
2018-03-19T01:48:44.691Z,73.30
2018-03-19T01:51:12.866Z,73.40
2018-03-19T01:53:40.336Z,73.10
2018-03-19T01:56:07.822Z,72.70
2018-03-19T01:58:35.295Z,72.90
2018-03-19T02:01:02.754Z,72.90
2018-03-19T02:03:30.775Z,73.20
2018-03-19T02:05:58.229Z,72.70
2018-03-19T02:08:33.237Z,72.30
2018-03-19T02:11:01.656Z,72.10
2018-03-19T02:13:29.611Z,72.40
2018-03-19T02:15:57.433Z,72.20
2018-03-19T02:18:26.166Z,72.80
2018-03-19T02:20:54.136Z,72.80
2018-03-19T02:23:22.554Z,72.60
2018-03-19T02:25:50.894Z,72.40
2018-03-19T02:31:09.879Z,72.40
2018-03-19T02:33:37.843Z,72.30
2018-03-19T02:36:05.322Z,71.90
2018-03-19T02:38:32.811Z,71.10
2018-03-19T02:41:01.057Z,71.70
2018-03-19T02:43:28.541Z,71.70
2018-03-19T02:45:56.009Z,72.10
2018-03-19T02:48:28.125Z,71.90
2018-03-19T02:50:55.615Z,71.90
2018-03-19T02:53:23.076Z,72.00
2018-03-19T02:55:50.536Z,72.20
2018-03-19T02:58:18.002Z,71.50
2018-03-19T03:00:45.458Z,71.50
2018-03-19T03:17:43.582Z,70.70
2018-03-19T03:20:11.552Z,70.60
2018-03-19T03:22:39.732Z,70.20
2018-03-19T03:25:07.256Z,70.10
2018-03-19T03:27:34.691Z,69.30
2018-03-19T03:30:02.167Z,69.50
2018-03-19T03:32:30.892Z,69.50
2018-03-19T03:34:59.165Z,69.50
2018-03-19T03:37:26.639Z,69.40
2018-03-19T03:39:54.593Z,69.30
2018-03-19T03:42:22.067Z,69.30
2018-03-19T03:44:49.540Z,69.20
2018-03-19T03:47:17.789Z,69.10
2018-03-19T03:52:50.822Z,68.00
2018-03-19T03:55:18.896Z,68.00
2018-03-19T03:57:47.049Z,67.20
2018-03-19T04:00:14.744Z,67.20
2018-03-19T04:02:42.691Z,67.30
2018-03-19T04:05:29.794Z,66.70
2018-03-19T04:07:57.967Z,66.10
2018-03-19T04:10:26.029Z,65.90
2018-03-19T04:12:54.326Z,66.10
2018-03-19T04:15:22.401Z,66.40
2018-03-19T04:17:49.960Z,66.80
2018-03-19T04:20:17.801Z,66.60
2018-03-19T04:22:45.261Z,66.60
2018-03-19T04:25:12.730Z,65.90
2018-03-19T04:27:40.188Z,65.90
2018-03-19T04:30:07.710Z,66.00
2018-03-19T04:32:35.963Z,66.10
2018-03-19T04:35:03.413Z,66.00
2018-03-19T04:37:30.888Z,65.60
2018-03-19T04:39:58.349Z,65.10
2018-03-19T04:42:25.816Z,64.60
2018-03-19T04:44:53.280Z,65.30
2018-03-19T04:47:23.520Z,65.60
2018-03-19T04:49:50.967Z,65.60
2018-03-19T04:52:19.193Z,65.10
2018-03-19T04:54:46.660Z,65.10
2018-03-19T04:57:14.139Z,65.60
2018-03-19T04:59:41.605Z,65.90
2018-03-19T05:02:09.837Z,66.60
2018-03-19T05:04:48.289Z,66.50
2018-03-19T05:07:15.776Z,66.70
2018-03-19T05:09:43.230Z,67.40
2018-03-19T05:12:10.699Z,67.30
2018-03-19T05:14:38.687Z,67.30
2018-03-19T05:17:07.164Z,66.30
2018-03-19T05:19:34.629Z,65.50
2018-03-19T05:22:02.102Z,64.80
2018-03-19T05:24:29.547Z,64.90
2018-03-19T05:26:57.053Z,65.50
2018-03-19T05:29:25.320Z,65.50
2018-03-19T05:31:52.761Z,65.00
2018-03-19T05:34:20.213Z,65.10
2018-03-19T05:40:02.465Z,65.10
2018-03-19T05:42:29.922Z,65.00
2018-03-19T05:44:58.360Z,65.30
2018-03-19T05:47:25.895Z,65.50
2018-03-19T05:50:08.067Z,66.20
2018-03-19T05:52:56.309Z,66.30
2018-03-19T05:55:23.790Z,66.40
2018-03-19T05:57:52.041Z,66.30
2018-03-19T06:00:19.519Z,66.20
2018-03-19T06:02:47.753Z,65.70
2018-03-19T06:05:15.218Z,65.70
2018-03-19T06:07:42.697Z,66.20
2018-03-19T06:10:10.167Z,66.70
2018-03-19T06:12:38.398Z,66.40
2018-03-19T06:15:05.863Z,66.40
2018-03-19T06:17:33.339Z,66.20
2018-03-19T06:20:01.768Z,65.90
2018-03-19T06:22:29.237Z,66.10
2018-03-19T06:24:56.846Z,65.80
2018-03-19T06:27:24.433Z,66.00
2018-03-19T06:29:52.006Z,66.00
2018-03-19T06:32:19.617Z,66.80
2018-03-19T06:34:47.176Z,67.00
2018-03-19T06:37:14.824Z,66.90
2018-03-19T06:39:43.232Z,67.10
2018-03-19T06:42:10.857Z,67.10
2018-03-19T06:44:38.414Z,67.00
2018-03-19T06:47:05.975Z,66.80
2018-03-19T06:49:33.598Z,66.80
2018-03-19T06:52:02.017Z,66.40
2018-03-19T06:54:29.584Z,66.40
2018-03-19T06:56:57.145Z,66.10
2018-03-19T06:59:24.802Z,64.90
2018-03-19T07:01:52.387Z,65.10
2018-03-19T07:04:20.830Z,62.60
2018-03-19T07:06:48.364Z,62.60
2018-03-19T07:09:15.912Z,61.90
2018-03-19T07:11:43.628Z,61.50
2018-03-19T07:14:11.225Z,60.80
2018-03-19T07:16:38.784Z,59.20
2018-03-19T07:19:06.480Z,57.70
2018-03-19T07:21:34.097Z,58.40
2018-03-19T07:24:01.630Z,58.00
2018-03-19T07:26:29.115Z,57.30
2018-03-19T07:28:56.602Z,56.30
2018-03-19T07:31:24.850Z,56.40
2018-03-19T07:33:52.351Z,56.50
2018-03-19T07:36:20.660Z,56.10
2018-03-19T07:38:48.153Z,56.00
2018-03-19T07:41:15.641Z,55.20
2018-03-19T07:43:43.112Z,54.50
2018-03-19T07:46:10.593Z,54.60
2018-03-19T07:48:38.091Z,54.90
2018-03-19T07:51:06.364Z,55.90
2018-03-19T07:53:33.812Z,55.30
2018-03-19T07:56:01.288Z,54.50
2018-03-19T07:58:29.531Z,53.20
2018-03-19T08:00:56.998Z,53.20
2018-03-19T08:03:24.477Z,53.90
2018-03-19T08:05:52.705Z,53.20
2018-03-19T08:08:20.190Z,53.20
2018-03-19T08:10:47.669Z,52.90
2018-03-19T08:13:16.793Z,51.60
2018-03-19T08:15:44.259Z,51.60
2018-03-19T08:18:11.736Z,51.50
2018-03-19T08:20:39.202Z,52.10
2018-03-19T08:23:06.669Z,50.80
2018-03-19T08:25:34.116Z,51.20
2018-03-19T08:28:01.585Z,49.90
2018-03-19T08:30:29.060Z,48.60
2018-03-19T08:32:56.519Z,46.30
2018-03-19T08:35:24.753Z,48.00
2018-03-19T09:05:39.942Z,39.90
2018-03-19T09:08:07.382Z,39.40
2018-03-19T09:10:34.843Z,39.30
2018-03-19T09:13:02.311Z,41.00
2018-03-19T09:15:29.761Z,39.60
2018-03-19T09:17:57.213Z,40.30
2018-03-19T09:20:24.678Z,39.40
2018-03-19T09:22:52.121Z,37.90
2018-03-19T09:25:19.628Z,37.40
2018-03-19T09:27:47.849Z,38.70
2018-03-19T09:30:15.310Z,38.00
2018-03-19T09:32:43.532Z,37.50
2018-03-19T09:35:11.041Z,37.50
2018-03-19T09:37:39.239Z,37.60
2018-03-19T09:40:06.720Z,37.60
2018-03-19T09:42:34.167Z,36.90
2018-03-19T09:45:01.630Z,37.80
2018-03-19T09:47:29.080Z,38.60
2018-03-19T09:49:56.543Z,38.60
2018-03-19T09:52:24.009Z,37.00
2018-03-19T09:54:51.461Z,36.60
2018-03-19T09:57:18.937Z,36.70
2018-03-19T09:59:46.382Z,36.50
2018-03-19T10:02:13.840Z,35.60
2018-03-19T10:04:41.299Z,36.00
2018-03-19T10:07:08.750Z,34.30
2018-03-19T10:09:36.219Z,34.30
2018-03-19T10:12:03.683Z,34.10
2018-03-19T10:14:31.137Z,32.40
2018-03-19T10:16:58.597Z,33.40
2018-03-19T10:19:26.044Z,33.90
2018-03-19T10:21:53.507Z,33.60
2018-03-19T10:24:20.962Z,33.50
2018-03-19T10:26:48.416Z,32.70
2018-03-19T10:29:15.876Z,33.00
2018-03-19T10:31:43.376Z,32.50
2018-03-19T10:34:10.811Z,33.50
2018-03-19T10:36:38.314Z,32.80
2018-03-19T10:39:05.768Z,33.00
2018-03-19T10:41:33.222Z,33.10
2018-03-19T10:44:00.675Z,34.10
2018-03-19T10:46:28.132Z,34.00
2018-03-19T10:48:55.576Z,33.70
2018-03-19T10:51:23.025Z,33.00
2018-03-19T10:53:50.478Z,33.70
2018-03-19T10:56:18.711Z,34.20
2018-03-19T10:58:46.161Z,34.20
2018-03-19T11:01:28.501Z,34.20
2018-03-19T11:04:01.895Z,33.60
2018-03-19T11:06:34.937Z,33.00
2018-03-19T11:09:08.086Z,33.80
2018-03-19T11:11:35.549Z,33.90
2018-03-19T11:14:03.014Z,33.20
2018-03-19T11:16:31.256Z,32.60
2018-03-19T11:18:58.726Z,32.60
2018-03-19T11:21:26.177Z,32.50
2018-03-19T11:23:53.640Z,33.30
2018-03-19T11:26:21.098Z,32.10
2018-03-19T11:28:48.552Z,32.20
2018-03-19T11:31:16.013Z,31.60
2018-03-19T11:33:43.473Z,31.10
2018-03-19T11:36:10.919Z,31.50
2018-03-19T11:38:38.387Z,32.40
2018-03-19T11:41:05.826Z,31.50
2018-03-19T11:43:33.288Z,33.60
2018-03-19T11:46:01.381Z,33.70
2018-03-19T11:48:29.610Z,32.00
2018-03-19T11:50:57.063Z,31.90
2018-03-19T11:53:24.518Z,31.80
2018-03-19T11:55:51.960Z,32.60
2018-03-19T11:58:19.428Z,30.50
2018-03-19T12:00:46.868Z,31.40
2018-03-19T12:03:14.329Z,32.00
2018-03-19T12:05:41.775Z,30.90
2018-03-19T12:08:10.207Z,30.00
2018-03-19T12:10:37.665Z,30.00
2018-03-19T12:13:05.132Z,30.30
2018-03-19T12:15:32.600Z,29.90
2018-03-19T12:18:00.056Z,29.60
2018-03-19T12:20:27.507Z,30.00
2018-03-19T12:22:54.976Z,29.70
2018-03-19T12:25:22.433Z,29.50
2018-03-19T12:27:49.879Z,29.60
2018-03-19T12:30:17.335Z,30.30
2018-03-19T12:32:44.783Z,30.00
2018-03-19T12:35:12.232Z,29.40
2018-03-19T12:37:39.680Z,29.80
2018-03-19T12:40:07.137Z,29.70
2018-03-19T12:42:34.581Z,30.00
2018-03-19T12:45:02.046Z,30.00
2018-03-19T12:47:29.496Z,30.00
2018-03-19T12:49:56.964Z,29.50
2018-03-19T12:52:24.411Z,29.50
2018-03-19T12:54:51.869Z,29.10
2018-03-19T12:57:19.314Z,29.10
2018-03-19T12:59:46.784Z,29.50
2018-03-19T13:02:14.239Z,29.50
2018-03-19T13:04:41.703Z,29.50
2018-03-19T13:07:10.092Z,29.20
2018-03-19T13:09:37.551Z,28.70
2018-03-19T13:12:05.017Z,28.40
2018-03-19T13:14:32.472Z,28.60
2018-03-19T13:17:02.650Z,28.30
2018-03-19T13:22:22.978Z,29.00
2018-03-19T13:24:50.437Z,28.40
2018-03-19T13:27:17.895Z,28.60
2018-03-19T13:29:45.371Z,29.20
2018-03-19T13:32:12.824Z,29.30
2018-03-19T13:34:41.070Z,28.90
2018-03-19T13:37:09.283Z,28.40
2018-03-19T13:39:36.794Z,28.40
2018-03-19T13:42:04.285Z,29.00
2018-03-19T13:44:32.599Z,28.70
2018-03-19T13:47:00.166Z,28.60
2018-03-19T13:49:29.129Z,28.00
2018-03-19T13:51:56.929Z,27.90
2018-03-19T13:54:25.177Z,28.80
2018-03-19T13:56:53.097Z,28.80
2018-03-19T13:59:21.323Z,28.20
2018-03-19T14:01:48.830Z,28.20
2018-03-19T14:04:16.379Z,28.60
2018-03-19T14:06:44.713Z,28.50
2018-03-19T14:09:12.171Z,28.50
2018-03-19T14:11:39.665Z,29.10
2018-03-19T14:14:07.131Z,29.40
2018-03-19T14:16:34.629Z,28.80
2018-03-19T14:19:02.103Z,29.20
2018-03-19T14:21:29.619Z,28.90
2018-03-19T14:23:57.081Z,28.80
2018-03-19T14:26:24.610Z,29.30
2018-03-19T14:28:52.955Z,29.10
2018-03-19T14:31:21.115Z,29.50
2018-03-19T14:33:48.600Z,29.10
2018-03-19T14:36:16.106Z,29.50
2018-03-19T14:38:44.158Z,30.00
2018-03-19T14:41:11.630Z,30.00
2018-03-19T14:43:39.913Z,30.00
2018-03-19T14:46:07.420Z,30.00
2018-03-19T14:48:34.907Z,30.20
2018-03-19T14:51:02.473Z,29.90
2018-03-19T14:53:29.960Z,29.90
2018-03-19T14:55:58.188Z,30.30
2018-03-19T14:58:25.706Z,30.30
2018-03-19T15:00:55.275Z,30.40
2018-03-19T15:03:23.588Z,30.80
2018-03-19T15:05:51.060Z,31.00
2018-03-19T15:08:18.549Z,31.10
2018-03-19T15:10:46.087Z,31.70
2018-03-19T15:13:14.293Z,33.30
2018-03-19T15:15:41.757Z,32.50
2018-03-19T15:18:09.235Z,32.80
2018-03-19T15:20:37.483Z,33.90
2018-03-19T15:23:05.152Z,33.90
2018-03-19T15:25:38.417Z,33.80
2018-03-19T15:28:07.637Z,32.90
2018-03-19T15:33:27.693Z,33.20
2018-03-19T15:39:07.666Z,33.30
2018-03-19T15:41:35.301Z,33.20
2018-03-19T15:44:02.820Z,33.60
2018-03-19T15:46:30.235Z,34.10
2018-03-19T15:48:58.461Z,35.00
2018-03-19T15:51:26.006Z,35.00
2018-03-19T15:53:55.200Z,34.80
2018-03-19T15:56:22.658Z,34.10
2018-03-19T15:58:50.123Z,34.30
2018-03-19T16:01:17.609Z,35.00
2018-03-19T16:03:45.896Z,34.30
2018-03-19T16:06:13.358Z,34.30
2018-03-19T16:08:40.925Z,34.60
2018-03-19T16:11:09.848Z,34.60
2018-03-19T16:13:37.314Z,34.70
2018-03-19T16:16:04.817Z,35.20
2018-03-19T16:18:32.877Z,35.00
2018-03-19T16:21:00.448Z,34.70
2018-03-19T16:23:28.110Z,34.70
2018-03-19T16:25:59.820Z,35.10
2018-03-19T16:28:27.336Z,34.50
2018-03-19T16:30:55.655Z,35.00
2018-03-19T16:33:23.149Z,34.80
2018-03-19T16:35:50.597Z,35.10
2018-03-19T16:38:18.069Z,35.60
2018-03-19T16:40:45.542Z,35.40
2018-03-19T16:43:13.007Z,36.00
2018-03-19T16:45:48.797Z,35.80
2018-03-19T16:48:16.888Z,35.70
2018-03-19T16:50:45.190Z,35.90
2018-03-19T16:53:12.659Z,36.20
2018-03-19T16:55:40.116Z,36.30
2018-03-19T16:58:08.693Z,36.40
2018-03-19T17:00:36.916Z,36.60
2018-03-19T17:03:04.400Z,37.00
2018-03-19T17:05:31.846Z,37.40
2018-03-19T17:07:59.326Z,38.00
2018-03-19T17:10:26.784Z,38.20
2018-03-19T17:12:54.239Z,38.80
2018-03-19T17:15:21.756Z,39.30
2018-03-19T17:17:49.245Z,39.50
2018-03-19T17:20:18.608Z,39.50
2018-03-19T17:22:46.863Z,40.00
2018-03-19T17:25:14.355Z,40.00
2018-03-19T17:27:41.794Z,40.30
2018-03-19T17:33:07.452Z,40.60
2018-03-19T17:35:34.920Z,40.90
2018-03-19T17:38:02.357Z,40.40
2018-03-19T17:40:30.585Z,41.00
2018-03-19T17:42:58.037Z,41.00
2018-03-19T17:45:25.510Z,40.80
2018-03-19T17:47:52.975Z,41.60
2018-03-19T17:53:18.249Z,41.90
2018-03-19T17:59:02.061Z,42.50
2018-03-19T18:01:31.511Z,42.70
2018-03-19T18:03:59.901Z,42.60
2018-03-19T18:06:27.362Z,43.60
2018-03-19T18:08:54.804Z,43.40
2018-03-19T18:11:22.286Z,42.70
2018-03-19T18:13:50.527Z,42.40
2018-03-19T18:16:18.745Z,43.00
2018-03-19T18:18:46.968Z,42.90
2018-03-19T18:21:14.435Z,42.90
2018-03-19T18:23:42.649Z,43.30
2018-03-19T18:26:10.117Z,43.30
2018-03-19T18:28:37.569Z,43.80
2018-03-19T18:31:05.028Z,44.20
2018-03-19T18:33:32.486Z,44.70
2018-03-19T18:36:00.852Z,45.10
2018-03-19T18:38:33.820Z,45.40
2018-03-19T18:41:01.289Z,45.80
2018-03-19T18:43:28.755Z,46.00
2018-03-19T18:45:56.226Z,46.40
2018-03-19T18:48:24.671Z,46.80
2018-03-19T18:50:52.129Z,47.00
2018-03-19T18:53:19.584Z,47.30
2018-03-19T18:55:47.822Z,47.80
2018-03-19T18:58:15.278Z,47.80
2018-03-19T19:00:42.731Z,48.10
2018-03-19T19:03:11.089Z,48.30
2018-03-19T19:08:45.133Z,48.70
2018-03-19T19:11:12.602Z,49.10
2018-03-19T19:14:04.254Z,49.30
2018-03-19T19:16:31.747Z,49.40
2018-03-19T19:18:59.286Z,49.70
2018-03-19T19:21:27.499Z,49.70
2018-03-19T19:23:56.121Z,49.70
2018-03-19T19:26:23.704Z,49.80
2018-03-19T19:28:51.092Z,49.80
2018-03-19T19:31:18.544Z,49.70
2018-03-19T19:33:46.023Z,49.70
2018-03-19T19:36:13.485Z,49.70
2018-03-19T19:38:40.979Z,49.60
2018-03-19T19:41:09.232Z,49.40
2018-03-19T19:43:43.147Z,49.40
2018-03-19T19:46:10.777Z,49.20
2018-03-19T19:48:38.279Z,48.80
2018-03-19T19:51:06.932Z,48.40
2018-03-19T19:53:34.492Z,48.40
2018-03-19T19:56:03.838Z,48.30
2018-03-19T19:58:31.934Z,48.50
2018-03-19T20:01:04.346Z,48.50
2018-03-19T20:03:32.000Z,48.50
2018-03-19T20:05:59.556Z,48.80
2018-03-19T20:08:27.205Z,48.90
2018-03-19T20:10:59.039Z,48.80
2018-03-19T20:13:32.356Z,49.00
2018-03-19T20:15:59.842Z,49.00
2018-03-19T20:18:27.391Z,48.80
2018-03-19T20:20:54.958Z,48.50
2018-03-19T20:23:27.123Z,48.20
2018-03-19T20:25:54.711Z,47.60
2018-03-19T20:28:24.049Z,47.50
2018-03-19T20:30:53.517Z,47.50
2018-03-19T20:33:21.093Z,47.40
2018-03-19T20:35:48.627Z,47.20
2018-03-19T20:38:16.192Z,47.20
2018-03-19T20:40:43.657Z,47.00
2018-03-19T20:43:11.192Z,47.10
2018-03-19T20:45:39.491Z,46.80
2018-03-19T20:48:07.035Z,46.80
2018-03-19T20:50:34.565Z,46.90
2018-03-19T20:53:02.831Z,47.30
2018-03-19T20:55:35.305Z,47.20
2018-03-19T20:58:02.873Z,47.30
2018-03-19T21:00:30.483Z,47.50
2018-03-19T21:02:57.976Z,47.30
2018-03-19T21:05:26.982Z,47.20
2018-03-19T21:07:55.279Z,47.20
2018-03-19T21:10:26.630Z,47.30
2018-03-19T21:12:54.204Z,47.60
2018-03-19T21:15:21.745Z,48.00
2018-03-19T21:17:49.314Z,48.40
2018-03-19T21:20:16.856Z,48.90
2018-03-19T21:22:44.392Z,49.50
2018-03-19T21:25:11.954Z,50.10
2018-03-19T21:27:39.417Z,50.60
2018-03-19T21:30:08.408Z,50.90
2018-03-19T21:32:36.863Z,51.20
2018-03-19T21:35:04.615Z,51.20
2018-03-19T21:37:32.324Z,51.40
2018-03-19T21:40:01.352Z,51.60
2018-03-19T21:42:29.546Z,51.60
2018-03-19T21:44:58.121Z,51.90
2018-03-19T21:47:27.769Z,52.00
2018-03-19T21:49:55.376Z,52.30
2018-03-19T21:52:26.099Z,52.80
2018-03-19T21:54:54.195Z,53.20
2018-03-19T21:57:21.719Z,53.60
2018-03-19T21:59:50.704Z,54.90
2018-03-19T22:02:18.993Z,55.30
2018-03-19T22:04:46.490Z,55.20
2018-03-19T22:07:14.650Z,55.40
2018-03-19T22:09:44.000Z,55.90
2018-03-19T22:12:11.458Z,55.90
2018-03-19T22:14:39.894Z,56.40
2018-03-19T22:17:07.366Z,56.40
2018-03-19T22:19:34.832Z,56.70
2018-03-19T22:22:02.776Z,57.30
2018-03-19T22:24:30.238Z,57.60
2018-03-19T22:26:58.204Z,58.10
2018-03-19T22:29:26.421Z,59.80
2018-03-19T22:31:54.017Z,59.20
2018-03-19T22:34:21.642Z,60.30
2018-03-19T22:36:49.096Z,61.40
2018-03-19T22:39:16.545Z,63.00
2018-03-19T22:41:44.016Z,65.30
2018-03-19T22:44:11.947Z,66.80
2018-03-19T22:46:39.412Z,68.30
2018-03-19T22:49:06.868Z,69.80
2018-03-19T22:51:34.331Z,70.40
2018-03-19T22:54:01.787Z,71.30
2018-03-19T22:56:29.307Z,72.00
2018-03-19T22:58:57.513Z,73.40
2018-03-19T23:01:32.353Z,73.40
2018-03-19T23:03:59.833Z,74.50
2018-03-19T23:06:27.319Z,75.10
2018-03-19T23:08:55.018Z,75.70
2018-03-19T23:11:22.473Z,76.50
2018-03-19T23:13:49.942Z,77.20
2018-03-19T23:16:18.005Z,78.40
2018-03-19T23:18:45.468Z,79.20
2018-03-19T23:21:13.643Z,80.00
2018-03-19T23:23:41.124Z,80.70
2018-03-19T23:26:09.173Z,81.00
2018-03-19T23:28:37.345Z,81.50
2018-03-19T23:31:05.072Z,82.00
2018-03-19T23:33:33.903Z,82.20
2018-03-19T23:36:01.371Z,82.40
2018-03-19T23:38:29.433Z,82.60
2018-03-19T23:40:57.602Z,83.00
2018-03-19T23:43:25.085Z,83.10
2018-03-19T23:45:53.132Z,83.10
2018-03-19T23:48:20.601Z,83.00
2018-03-19T23:50:48.072Z,82.80
2018-03-19T23:53:15.584Z,83.20
2018-03-19T23:55:43.578Z,83.30
2018-03-19T23:58:11.549Z,83.40
